Observation data for Slaton on 01/12/2018      Previous  Date  Next       Current Mesonet Observations  Soil Data  Daily Summary Page  Observations in Plain Language
KSLS 120600Z 02003KT 00/M11 A3028 RMK A01 T00011106  RH  045%=      5-min Rain = 0
KSLS 120605Z 01003KT 00/M11 A3028 RMK A01 T00021107  RH  044%=      5-min Rain = 0
KSLS 120610Z 01003KT M00/M11 A3027 RMK A01 T10021112  RH  044%=      5-min Rain = 0
KSLS 120615Z 02002KT M01/M12 A3028 RMK A01 T10101117  RH  045%=      5-min Rain = 0
KSLS 120620Z 01002KT M01/M12 A3028 RMK A01 T10141116  RH  047%=      5-min Rain = 0
KSLS 120625Z 01001KT M01/M12 A3028 RMK A01 T10141115  RH  047%=      5-min Rain = 0
KSLS 120630Z 01000KT M02/M12 A3027 RMK A01 T10201121  RH  046%=      5-min Rain = 0
KSLS 120635Z 01000KT M03/M12 A3027 RMK A01 T10261120  RH  049%=      5-min Rain = 0
KSLS 120640Z 30001KT M02/M12 A3027 RMK A01 T10241117  RH  049%=      5-min Rain = 0
KSLS 120645Z 29001KT M02/M12 A3027 RMK A01 T10241118  RH  049%=      5-min Rain = 0
KSLS 120650Z 26002KT M03/M12 A3027 RMK A01 T10281118  RH  050%=      5-min Rain = 0
KSLS 120655Z 28001KT M03/M11 A3026 RMK A01 T10261114  RH  051%=      5-min Rain = 0
KSLS 120700Z 28001KT M02/M11 A3026 RMK A01 T10231114  RH  050%=      5-min Rain = 0
KSLS 120705Z 28001KT M03/M12 A3026 RMK A01 T10261118  RH  050%=      5-min Rain = 0
KSLS 120710Z 27002KT M03/M12 A3026 RMK A01 T10331120  RH  052%=      5-min Rain = 0
KSLS 120715Z 27001KT M03/M12 A3026 RMK A01 T10321116  RH  053%=      5-min Rain = 0
KSLS 120720Z 27001KT M03/M12 A3026 RMK A01 T10311115  RH  053%=      5-min Rain = 0
KSLS 120725Z 27001KT M03/M11 A3026 RMK A01 T10291114  RH  053%=      5-min Rain = 0
KSLS 120730Z 27001KT M03/M11 A3025 RMK A01 T10281114  RH  052%=      5-min Rain = 0
KSLS 120735Z 27002KT M03/M12 A3025 RMK A01 T10311116  RH  053%=      5-min Rain = 0
KSLS 120740Z 27001KT M03/M12 A3025 RMK A01 T10301115  RH  053%=      5-min Rain = 0
KSLS 120745Z 26002KT M03/M12 A3025 RMK A01 T10311118  RH  052%=      5-min Rain = 0
KSLS 120750Z 26003KT M04/M12 A3026 RMK A01 T10371120  RH  053%=      5-min Rain = 0
KSLS 120755Z 26001KT M03/M12 A3025 RMK A01 T10341116  RH  054%=      5-min Rain = 0
KSLS 120800Z 26001KT M03/M12 A3026 RMK A01 T10311115  RH  053%=      5-min Rain = 0
KSLS 120805Z 26001KT M03/M11 A3026 RMK A01 T10301114  RH  053%=      5-min Rain = 0
KSLS 120810Z 26002KT M03/M12 A3026 RMK A01 T10321119  RH  051%=      5-min Rain = 0
KSLS 120815Z 27003KT M04/M12 A3026 RMK A01 T10421124  RH  054%=      5-min Rain = 0
KSLS 120820Z 27002KT M05/M13 A3026 RMK A01 T10451126  RH  054%=      5-min Rain = 0
KSLS 120825Z 27002KT M05/M12 A3026 RMK A01 T10461123  RH  055%=      5-min Rain = 0
KSLS 120830Z 27002KT M04/M12 A3026 RMK A01 T10441122  RH  055%=      5-min Rain = 0
KSLS 120835Z 27002KT M05/M12 A3026 RMK A01 T10451124  RH  055%=      5-min Rain = 0
KSLS 120840Z 26002KT M05/M12 A3026 RMK A01 T10451122  RH  056%=      5-min Rain = 0
KSLS 120845Z 26003KT M05/M12 A3026 RMK A01 T10451124  RH  055%=      5-min Rain = 0
KSLS 120850Z 26003KT M05/M12 A3026 RMK A01 T10481123  RH  057%=      5-min Rain = 0
KSLS 120855Z 26004KT M05/M12 A3026 RMK A01 T10471123  RH  056%=      5-min Rain = 0
KSLS 120900Z 26004KT M05/M12 A3026 RMK A01 T10481124  RH  056%=      5-min Rain = 0
KSLS 120905Z 26004KT M05/M12 A3026 RMK A01 T10491123  RH  057%=      5-min Rain = 0
KSLS 120910Z 25005KT M05/M12 A3026 RMK A01 T10471121  RH  057%=      5-min Rain = 0
KSLS 120915Z 26003KT M05/M12 A3026 RMK A01 T10471121  RH  057%=      5-min Rain = 0
KSLS 120920Z 26003KT M05/M12 A3026 RMK A01 T10461121  RH  057%=      5-min Rain = 0
KSLS 120925Z 26004KT M05/M12 A3026 RMK A01 T10501122  RH  058%=      5-min Rain = 0
KSLS 120930Z 26001KT M05/M12 A3025 RMK A01 T10461115  RH  059%=      5-min Rain = 0
KSLS 120935Z 26000KT M04/M12 A3025 RMK A01 T10401118  RH  056%=      5-min Rain = 0
KSLS 120940Z 00000KT M05/M13 A3025 RMK A01 T10501126  RH  056%=      5-min Rain = 0
KSLS 120945Z 30001KT M05/M12 A3024 RMK A01 T10471117  RH  059%=      5-min Rain = 0
KSLS 120950Z 30000KT M04/M12 A3024 RMK A01 T10431117  RH  057%=      5-min Rain = 0
KSLS 120955Z 30000KT M04/M12 A3024 RMK A01 T10411116  RH  057%=      5-min Rain = 0
KSLS 121000Z 29000KT M04/M12 A3024 RMK A01 T10421118  RH  056%=      5-min Rain = 0
KSLS 121005Z 15001KT M05/M12 A3023 RMK A01 T10451121  RH  056%=      5-min Rain = 0
KSLS 121010Z 16003KT M06/M13 A3023 RMK A01 T10561129  RH  057%=      5-min Rain = 0
KSLS 121015Z 17004KT M06/M13 A3023 RMK A01 T10641125  RH  063%=      5-min Rain = 0
KSLS 121020Z 15004KT M07/M12 A3024 RMK A01 T10651121  RH  065%=      5-min Rain = 0
KSLS 121025Z 15006KT M06/M12 A3024 RMK A01 T10601116  RH  065%=      5-min Rain = 0
KSLS 121030Z 15005KT M06/M12 A3024 RMK A01 T10581115  RH  065%=      5-min Rain = 0
KSLS 121035Z 15005KT M06/M12 A3024 RMK A01 T10591117  RH  065%=      5-min Rain = 0
KSLS 121040Z 15005KT M06/M12 A3024 RMK A01 T10591116  RH  065%=      5-min Rain = 0
KSLS 121045Z 15005KT M05/M12 A3023 RMK A01 T10541116  RH  063%=      5-min Rain = 0
KSLS 121050Z 16004KT M05/M12 A3024 RMK A01 T10511115  RH  062%=      5-min Rain = 0
KSLS 121055Z 16004KT M05/M12 A3024 RMK A01 T10481116  RH  060%=      5-min Rain = 0
KSLS 121100Z 16004KT M05/M12 A3024 RMK A01 T10481116  RH  060%=      5-min Rain = 0
KSLS 121105Z 16003KT M05/M12 A3023 RMK A01 T10491117  RH  060%=      5-min Rain = 0
KSLS 121110Z 16003KT M05/M12 A3023 RMK A01 T10501118  RH  060%=      5-min Rain = 0
KSLS 121115Z 17004KT M05/M12 A3023 RMK A01 T10541120  RH  060%=      5-min Rain = 0
KSLS 121120Z 17005KT M06/M12 A3023 RMK A01 T10561121  RH  061%=      5-min Rain = 0
KSLS 121125Z 17006KT M05/M12 A3023 RMK A01 T10541115  RH  063%=      5-min Rain = 0
KSLS 121130Z 17006KT M05/M11 A3023 RMK A01 T10531112  RH  064%=      5-min Rain = 0
KSLS 121135Z 17007KT M05/M11 A3024 RMK A01 T10541114  RH  064%=      5-min Rain = 0
KSLS 121140Z 18008KT M06/M12 A3024 RMK A01 T10581117  RH  064%=      5-min Rain = 0
KSLS 121145Z 18008KT M06/M12 A3024 RMK A01 T10581115  RH  065%=      5-min Rain = 0
KSLS 121150Z 18009KT M06/M11 A3024 RMK A01 T10591111  RH  067%=      5-min Rain = 0
KSLS 121155Z 18008KT M06/M11 A3024 RMK A01 T10581108  RH  069%=      5-min Rain = 0
KSLS 121200Z 18009KT M06/M11 A3024 RMK A01 T10571107  RH  069%=      5-min Rain = 0
KSLS 121205Z 17009KT M06/M11 A3023 RMK A01 T10561107  RH  068%=      5-min Rain = 0
KSLS 121210Z 17008KT M06/M11 A3023 RMK A01 T10561106  RH  069%=      5-min Rain = 0
KSLS 121215Z 17008KT M06/M11 A3024 RMK A01 T10561106  RH  069%=      5-min Rain = 0
KSLS 121220Z 16008KT M06/M11 A3024 RMK A01 T10571106  RH  069%=      5-min Rain = 0
KSLS 121225Z 16008KT M06/M11 A3024 RMK A01 T10571105  RH  069%=      5-min Rain = 0
KSLS 121230Z 17008KT M06/M11 A3024 RMK A01 T10551105  RH  069%=      5-min Rain = 0
KSLS 121235Z 17008KT M06/M11 A3024 RMK A01 T10581107  RH  069%=      5-min Rain = 0
KSLS 121240Z 17007KT M06/M11 A3023 RMK A01 T10611109  RH  070%=      5-min Rain = 0
KSLS 121245Z 17008KT M06/M11 A3023 RMK A01 T10631111  RH  070%=      5-min Rain = 0
KSLS 121250Z 17007KT M06/M11 A3023 RMK A01 T10641111  RH  070%=      5-min Rain = 0
KSLS 121255Z 18007KT M07/M11 A3024 RMK A01 T10661113  RH  070%=      5-min Rain = 0
KSLS 121300Z 18007KT M07/M11 A3024 RMK A01 T10671112  RH  071%=      5-min Rain = 0
KSLS 121305Z 18006KT M07/M11 A3024 RMK A01 T10671113  RH  071%=      5-min Rain = 0
KSLS 121310Z 17005KT M07/M11 A3025 RMK A01 T10681114  RH  070%=      5-min Rain = 0
KSLS 121315Z 17005KT M07/M12 A3025 RMK A01 T10661115  RH  069%=      5-min Rain = 0
KSLS 121320Z 17005KT M07/M12 A3025 RMK A01 T10671116  RH  069%=      5-min Rain = 0
KSLS 121325Z 17004KT M07/M12 A3025 RMK A01 T10671116  RH  069%=      5-min Rain = 0
KSLS 121330Z 16005KT M07/M12 A3025 RMK A01 T10671116  RH  069%=      5-min Rain = 0
KSLS 121335Z 17005KT M07/M12 A3025 RMK A01 T10671116  RH  069%=      5-min Rain = 0
KSLS 121340Z 18006KT M07/M12 A3025 RMK A01 T10701118  RH  069%=      5-min Rain = 0
KSLS 121345Z 18006KT M07/M12 A3025 RMK A01 T10741117  RH  072%=      5-min Rain = 0
KSLS 121350Z 19006KT M08/M12 A3025 RMK A01 T10751115  RH  074%=      5-min Rain = 0
KSLS 121355Z 18006KT M07/M11 A3025 RMK A01 T10731112  RH  074%=      5-min Rain = 0
KSLS 121400Z 19007KT M07/M11 A3025 RMK A01 T10701110  RH  074%=      5-min Rain = 0
KSLS 121405Z 19006KT M07/M11 A3026 RMK A01 T10681108  RH  074%=      5-min Rain = 0
KSLS 121410Z 19006KT M07/M11 A3026 RMK A01 T10661107  RH  074%=      5-min Rain = 0
KSLS 121415Z 18005KT M07/M11 A3026 RMK A01 T10651106  RH  073%=      5-min Rain = 0
KSLS 121420Z 18005KT M06/M10 A3026 RMK A01 T10631104  RH  073%=      5-min Rain = 0
KSLS 121425Z 18005KT M06/M10 A3026 RMK A01 T10611103  RH  073%=      5-min Rain = 0
KSLS 121430Z 19006KT M06/M10 A3026 RMK A01 T10581101  RH  072%=      5-min Rain = 0
KSLS 121435Z 18006KT M05/M10 A3025 RMK A01 T10541100  RH  071%=      5-min Rain = 0
KSLS 121440Z 17005KT M05/M10 A3025 RMK A01 T10521099  RH  070%=      5-min Rain = 0
KSLS 121445Z 17004KT M05/M10 A3025 RMK A01 T10491098  RH  069%=      5-min Rain = 0
KSLS 121450Z 17005KT M05/M10 A3026 RMK A01 T10461098  RH  068%=      5-min Rain = 0
KSLS 121455Z 17005KT M04/M10 A3026 RMK A01 T10441097  RH  067%=      5-min Rain = 0
KSLS 121500Z 16006KT M04/M10 A3026 RMK A01 T10411097  RH  066%=      5-min Rain = 0
KSLS 121505Z 16007KT M04/M10 A3026 RMK A01 T10391096  RH  065%=      5-min Rain = 0
KSLS 121510Z 15006KT M04/M09 A3027 RMK A01 T10361094  RH  065%=      5-min Rain = 0
KSLS 121515Z 14006KT M03/M09 A3027 RMK A01 T10321093  RH  064%=      5-min Rain = 0
KSLS 121520Z 15007KT M03/M09 A3026 RMK A01 T10291092  RH  062%=      5-min Rain = 0
KSLS 121525Z 15007KT M03/M09 A3027 RMK A01 T10251090  RH  062%=      5-min Rain = 0
KSLS 121530Z 15007KT M02/M09 A3027 RMK A01 T10221091  RH  060%=      5-min Rain = 0
KSLS 121535Z 14006KT M02/M09 A3027 RMK A01 T10211091  RH  059%=      5-min Rain = 0
KSLS 121540Z 14006KT M02/M09 A3027 RMK A01 T10161090  RH  058%=      5-min Rain = 0
KSLS 121545Z 15006KT M01/M09 A3028 RMK A01 T10141090  RH  057%=      5-min Rain = 0
KSLS 121550Z 15006KT M01/M09 A3028 RMK A01 T10121089  RH  057%=      5-min Rain = 0
KSLS 121555Z 16007KT M01/M09 A3028 RMK A01 T10091088  RH  055%=      5-min Rain = 0
KSLS 121600Z 16006KT M01/M09 A3027 RMK A01 T10071089  RH  054%=      5-min Rain = 0
KSLS 121605Z 16006KT M01/M09 A3027 RMK A01 T10051088  RH  054%=      5-min Rain = 0
KSLS 121610Z 16007KT M00/M09 A3027 RMK A01 T10021088  RH  053%=      5-min Rain = 0
KSLS 121615Z 16007KT 00/M09 A3027 RMK A01 T00011088  RH  052%=      5-min Rain = 0
KSLS 121620Z 17007KT 00/M09 A3027 RMK A01 T00031087  RH  051%=      5-min Rain = 0
KSLS 121625Z 16007KT 00/M09 A3027 RMK A01 T00041089  RH  050%=      5-min Rain = 0
KSLS 121630Z 16008KT 01/M09 A3027 RMK A01 T00061089  RH  049%=      5-min Rain = 0
KSLS 121635Z 18009KT 01/M09 A3027 RMK A01 T00081090  RH  049%=      5-min Rain = 0
KSLS 121640Z 16009KT 01/M09 A3026 RMK A01 T00101089  RH  048%=      5-min Rain = 0
KSLS 121645Z 17008KT 01/M09 A3026 RMK A01 T00131089  RH  047%=      5-min Rain = 0
KSLS 121650Z 16009KT 02/M09 A3026 RMK A01 T00161090  RH  046%=      5-min Rain = 0
KSLS 121655Z 16008KT 02/M09 A3026 RMK A01 T00171090  RH  045%=      5-min Rain = 0
KSLS 121700Z 16010KT 02/M09 A3026 RMK A01 T00211089  RH  044%=      5-min Rain = 0
KSLS 121705Z 17009KT 03/M09 A3026 RMK A01 T00251090  RH  043%=      5-min Rain = 0
KSLS 121710Z 17009KT 02/M09 A3025 RMK A01 T00241092  RH  043%=      5-min Rain = 0
KSLS 121715Z 17009KT 02/M09 A3025 RMK A01 T00241091  RH  043%=      5-min Rain = 0
KSLS 121720Z 16012KT 03/M09 A3024 RMK A01 T00281090  RH  042%=      5-min Rain = 0
KSLS 121725Z 17011KT 03/M09 A3023 RMK A01 T00311091  RH  041%=      5-min Rain = 0
KSLS 121730Z 17010KT 03/M09 A3023 RMK A01 T00331093  RH  039%=      5-min Rain = 0
KSLS 121735Z 17011KT 03/M10 A3023 RMK A01 T00331096  RH  039%=      5-min Rain = 0
KSLS 121740Z 17010KT 04/M10 A3023 RMK A01 T00361098  RH  037%=      5-min Rain = 0
KSLS 121745Z 16012KT 04/M10 A3023 RMK A01 T00401099  RH  036%=      5-min Rain = 0
KSLS 121750Z 17010KT 04/M10 A3023 RMK A01 T00421100  RH  035%=      5-min Rain = 0
KSLS 121755Z 17010KT 05/M10 A3023 RMK A01 T00461101  RH  034%=      5-min Rain = 0
KSLS 121800Z 15012KT 05/M10 A3023 RMK A01 T00481102  RH  033%=      5-min Rain = 0
KSLS 121805Z 17013KT 05/M11 A3022 RMK A01 T00481105  RH  032%=      5-min Rain = 0
KSLS 121810Z 16012G17KT 05/M10 A3022 RMK A01 T00501104  RH  032%=      5-min Rain = 0
KSLS 121815Z 16013KT 05/M11 A3021 RMK A01 T00501107  RH  031%=      5-min Rain = 0
KSLS 121820Z 17013KT 05/M11 A3021 RMK A01 T00511108  RH  031%=      5-min Rain = 0
KSLS 121825Z 16013KT 05/M11 A302 RMK A01 T00541109  RH  030%=      5-min Rain = 0
KSLS 121830Z 16012G17KT 06/M11 A302 RMK A01 T00581109  RH  029%=      5-min Rain = 0
KSLS 121835Z 16013KT 06/M11 A3019 RMK A01 T00591113  RH  028%=      5-min Rain = 0
KSLS 121840Z 16012G17KT 06/M11 A3019 RMK A01 T00611113  RH  028%=      5-min Rain = 0
KSLS 121845Z 17014KT 06/M11 A3018 RMK A01 T00631114  RH  027%=      5-min Rain = 0
KSLS 121850Z 17014KT 06/M12 A3018 RMK A01 T00631115  RH  027%=      5-min Rain = 0
KSLS 121855Z 16013KT 06/M11 A3018 RMK A01 T00641113  RH  027%=      5-min Rain = 0
KSLS 121900Z 16015KT 06/M11 A3018 RMK A01 T00641114  RH  027%=      5-min Rain = 0
KSLS 121905Z 16014G19KT 07/M11 A3017 RMK A01 T00681112  RH  027%=      5-min Rain = 0
KSLS 121910Z 17013G18KT 07/M11 A3017 RMK A01 T00701112  RH  026%=      5-min Rain = 0
KSLS 121915Z 16014G20KT 07/M11 A3016 RMK A01 T00731113  RH  026%=      5-min Rain = 0
KSLS 121920Z 17015KT 07/M12 A3016 RMK A01 T00731116  RH  025%=      5-min Rain = 0
KSLS 121925Z 16014G19KT 08/M12 A3015 RMK A01 T00751116  RH  025%=      5-min Rain = 0
KSLS 121930Z 16013G18KT 08/M12 A3015 RMK A01 T00761119  RH  024%=      5-min Rain = 0
KSLS 121935Z 18017G24KT 08/M12 A3015 RMK A01 T00761118  RH  024%=      5-min Rain = 0
KSLS 121940Z 18016G22KT 08/M12 A3014 RMK A01 T00751121  RH  024%=      5-min Rain = 0
KSLS 121945Z 18016KT 08/M12 A3014 RMK A01 T00761117  RH  024%=      5-min Rain = 0
KSLS 121950Z 17014G19KT 08/M12 A3014 RMK A01 T00761118  RH  024%=      5-min Rain = 0
KSLS 121955Z 17013G20KT 08/M12 A3014 RMK A01 T00791116  RH  024%=      5-min Rain = 0
KSLS 122000Z 17013G18KT 08/M12 A3014 RMK A01 T00791117  RH  024%=      5-min Rain = 0
KSLS 122005Z 16013KT 08/M12 A3014 RMK A01 T00781118  RH  024%=      5-min Rain = 0
KSLS 122010Z 18013G18KT 08/M12 A3014 RMK A01 T00801115  RH  024%=      5-min Rain = 0
KSLS 122015Z 18014G19KT 08/M12 A3014 RMK A01 T00821115  RH  024%=      5-min Rain = 0
KSLS 122020Z 18013KT 09/M11 A3014 RMK A01 T00861111  RH  024%=      5-min Rain = 0
KSLS 122025Z 19011KT 09/M11 A3014 RMK A01 T00861112  RH  024%=      5-min Rain = 0
KSLS 122030Z 19013G18KT 09/M11 A3014 RMK A01 T00861110  RH  024%=      5-min Rain = 0
KSLS 122035Z 18013G18KT 09/M11 A3014 RMK A01 T00861107  RH  025%=      5-min Rain = 0
KSLS 122040Z 18012KT 09/M11 A3013 RMK A01 T00851108  RH  025%=      5-min Rain = 0
KSLS 122045Z 19011G16KT 09/M11 A3014 RMK A01 T00881107  RH  024%=      5-min Rain = 0
KSLS 122050Z 19010G16KT 09/M11 A3014 RMK A01 T00881108  RH  024%=      5-min Rain = 0
KSLS 122055Z 18012G17KT 09/M11 A3013 RMK A01 T00901107  RH  024%=      5-min Rain = 0
KSLS 122100Z 19011KT 09/M11 A3013 RMK A01 T00911108  RH  024%=      5-min Rain = 0
KSLS 122105Z 19010KT 09/M11 A3013 RMK A01 T00911108  RH  024%=      5-min Rain = 0
KSLS 122110Z 18011G16KT 10/M10 A3013 RMK A01 T00951104  RH  024%=      5-min Rain = 0
KSLS 122115Z 18012KT 09/M11 A3014 RMK A01 T00941107  RH  023%=      5-min Rain = 0
KSLS 122120Z 18011KT 09/M11 A3014 RMK A01 T00921109  RH  023%=      5-min Rain = 0
KSLS 122125Z 16012KT 09/M11 A3013 RMK A01 T00911109  RH  023%=      5-min Rain = 0
KSLS 122130Z 18012G19KT 09/M11 A3013 RMK A01 T00911108  RH  023%=      5-min Rain = 0
KSLS 122135Z 17011KT 09/M11 A3013 RMK A01 T00931108  RH  023%=      5-min Rain = 0
KSLS 122140Z 17012KT 09/M11 A3013 RMK A01 T00941108  RH  023%=      5-min Rain = 0
KSLS 122145Z 16013KT 09/M11 A3013 RMK A01 T00931110  RH  023%=      5-min Rain = 0
KSLS 122150Z 17012G17KT 09/M11 A3013 RMK A01 T00941109  RH  023%=      5-min Rain = 0
KSLS 122155Z 17013KT 10/M11 A3013 RMK A01 T00951109  RH  023%=      5-min Rain = 0
KSLS 122200Z 16013KT 10/M11 A3013 RMK A01 T00951109  RH  023%=      5-min Rain = 0
KSLS 122205Z 15012KT 09/M11 A3013 RMK A01 T00941108  RH  023%=      5-min Rain = 0
KSLS 122210Z 16013KT 10/M11 A3013 RMK A01 T00951108  RH  023%=      5-min Rain = 0
KSLS 122215Z 16013KT 10/M11 A3013 RMK A01 T00961105  RH  023%=      5-min Rain = 0
KSLS 122220Z 16013KT 10/M11 A3013 RMK A01 T00961105  RH  023%=      5-min Rain = 0
KSLS 122225Z 17012KT 10/M10 A3013 RMK A01 T00981102  RH  024%=      5-min Rain = 0
KSLS 122230Z 17011KT 10/M10 A3013 RMK A01 T00971102  RH  024%=      5-min Rain = 0
KSLS 122235Z 17011KT 10/M10 A3013 RMK A01 T00971103  RH  024%=      5-min Rain = 0
KSLS 122240Z 17011KT 10/M10 A3013 RMK A01 T00961103  RH  024%=      5-min Rain = 0
KSLS 122245Z 17011KT 10/M10 A3013 RMK A01 T00951101  RH  024%=      5-min Rain = 0
KSLS 122250Z 16012KT 10/M10 A3013 RMK A01 T00951102  RH  024%=      5-min Rain = 0
KSLS 122255Z 15012KT 09/M10 A3013 RMK A01 T00941103  RH  024%=      5-min Rain = 0
KSLS 122300Z 16012KT 09/M10 A3013 RMK A01 T00941103  RH  024%=      5-min Rain = 0
KSLS 122305Z 16010KT 09/M10 A3013 RMK A01 T00931102  RH  024%=      5-min Rain = 0
KSLS 122310Z 16011KT 09/M10 A3013 RMK A01 T00921103  RH  024%=      5-min Rain = 0
KSLS 122315Z 15011KT 09/M10 A3013 RMK A01 T00921103  RH  025%=      5-min Rain = 0
KSLS 122320Z 16009KT 09/M10 A3013 RMK A01 T00901102  RH  025%=      5-min Rain = 0
KSLS 122325Z 15010KT 09/M11 A3013 RMK A01 T00881107  RH  024%=      5-min Rain = 0
KSLS 122330Z 14010KT 09/M11 A3013 RMK A01 T00851111  RH  024%=      5-min Rain = 0
KSLS 122335Z 13008KT 08/M12 A3014 RMK A01 T00821115  RH  024%=      5-min Rain = 0
KSLS 122340Z 13008KT 08/M12 A3014 RMK A01 T00781116  RH  024%=      5-min Rain = 0
KSLS 122345Z 12009KT 08/M12 A3015 RMK A01 T00761117  RH  024%=      5-min Rain = 0
KSLS 122350Z 12007KT 07/M12 A3015 RMK A01 T00721118  RH  025%=      5-min Rain = 0
KSLS 122355Z 12007KT 07/M12 A3015 RMK A01 T00691117  RH  025%=      5-min Rain = 0
KSLS 130000Z 12007KT 07/M12 A3015 RMK A01 T00661117  RH  026%=      5-min Rain = 0
KSLS 130005Z 12008KT 06/M12 A3015 RMK A01 T00621119  RH  026%=      5-min Rain = 0
KSLS 130010Z 12008KT 06/M12 A3016 RMK A01 T00571120  RH  027%=      5-min Rain = 0
KSLS 130015Z 12008KT 06/M12 A3016 RMK A01 T00571119  RH  027%=      5-min Rain = 0
KSLS 130020Z 12008KT 05/M12 A3016 RMK A01 T00521120  RH  028%=      5-min Rain = 0
KSLS 130025Z 12008KT 05/M12 A3016 RMK A01 T00501119  RH  028%=      5-min Rain = 0
KSLS 130030Z 12008KT 05/M12 A3016 RMK A01 T00451122  RH  029%=      5-min Rain = 0
KSLS 130035Z 12008KT 05/M12 A3017 RMK A01 T00451121  RH  029%=      5-min Rain = 0
KSLS 130040Z 12009KT 05/M12 A3017 RMK A01 T00451121  RH  029%=      5-min Rain = 0
KSLS 130045Z 12008KT 05/M12 A3017 RMK A01 T00451119  RH  030%=      5-min Rain = 0
KSLS 130050Z 11008KT 05/M12 A3017 RMK A01 T00451119  RH  030%=      5-min Rain = 0
KSLS 130055Z 11009G14KT 05/M12 A3018 RMK A01 T00451117  RH  030%=      5-min Rain = 0
KSLS 130100Z 10013KT 05/M11 A3018 RMK A01 T00471113  RH  031%=      5-min Rain = 0
KSLS 130105Z 10013KT 05/M11 A3019 RMK A01 T00451113  RH  031%=      5-min Rain = 0
KSLS 130110Z 10012KT 04/M11 A3019 RMK A01 T00421113  RH  032%=      5-min Rain = 0
KSLS 130115Z 10011KT 04/M11 A302 RMK A01 T00391114  RH  032%=      5-min Rain = 0
KSLS 130120Z 11009KT 04/M12 A302 RMK A01 T00371115  RH  032%=      5-min Rain = 0
KSLS 130125Z 11010KT 03/M12 A302 RMK A01 T00341116  RH  033%=      5-min Rain = 0
KSLS 130130Z 10011KT 03/M11 A3021 RMK A01 T00331114  RH  033%=      5-min Rain = 0
KSLS 130135Z 10012KT 03/M12 A3021 RMK A01 T00321115  RH  034%=      5-min Rain = 0
KSLS 130140Z 11011KT 03/M12 A3021 RMK A01 T00321116  RH  033%=      5-min Rain = 0
KSLS 130145Z 10012KT 03/M12 A3021 RMK A01 T00301116  RH  034%=      5-min Rain = 0
KSLS 130150Z 09012KT 03/M11 A3022 RMK A01 T00281114  RH  035%=      5-min Rain = 0
KSLS 130155Z 09013KT 03/M12 A3022 RMK A01 T00261116  RH  035%=      5-min Rain = 0
KSLS 130200Z 10013KT 03/M12 A3022 RMK A01 T00251120  RH  034%=      5-min Rain = 0
KSLS 130205Z 10014KT 02/M12 A3023 RMK A01 T00241122  RH  034%=      5-min Rain = 0
KSLS 130210Z 10013KT 02/M12 A3023 RMK A01 T00231122  RH  034%=      5-min Rain = 0
KSLS 130215Z 11012KT 02/M12 A3023 RMK A01 T00211122  RH  034%=      5-min Rain = 0
KSLS 130220Z 10013KT 02/M12 A3024 RMK A01 T00191122  RH  035%=      5-min Rain = 0
KSLS 130225Z 09011G16KT 02/M12 A3025 RMK A01 T00171122  RH  035%=      5-min Rain = 0
KSLS 130230Z 08011KT 02/M13 A3025 RMK A01 T00151127  RH  035%=      5-min Rain = 0
KSLS 130235Z 08012KT 01/M13 A3026 RMK A01 T00121129  RH  035%=      5-min Rain = 0
KSLS 130240Z 08010KT 01/M13 A3027 RMK A01 T00111130  RH  034%=      5-min Rain = 0
KSLS 130245Z 08011KT 01/M13 A3027 RMK A01 T00111131  RH  034%=      5-min Rain = 0
KSLS 130250Z 09011G17KT 01/M13 A3027 RMK A01 T00101129  RH  035%=      5-min Rain = 0
KSLS 130255Z 09010G15KT 01/M13 A3028 RMK A01 T00081128  RH  036%=      5-min Rain = 0
KSLS 130300Z 08011KT 01/M13 A3029 RMK A01 T00081126  RH  037%=      5-min Rain = 0
KSLS 130305Z 08010KT 01/M13 A3029 RMK A01 T00061130  RH  036%=      5-min Rain = 0
KSLS 130310Z 08010KT 01/M13 A303 RMK A01 T00061130  RH  036%=      5-min Rain = 0
KSLS 130315Z 07008KT 01/M13 A303 RMK A01 T00051131  RH  036%=      5-min Rain = 0
KSLS 130320Z 06006KT 00/M13 A3031 RMK A01 T00041132  RH  036%=      5-min Rain = 0
KSLS 130325Z 06006KT 00/13 A3031 RMK A01 T00-00-132  RH  037%=      5-min Rain = 0
KSLS 130330Z 06007KT M00/M13 A3032 RMK A01 T10021129  RH  038%=      5-min Rain = 0
KSLS 130335Z 05008KT M00/M13 A3032 RMK A01 T10021128  RH  039%=      5-min Rain = 0
KSLS 130340Z 06008KT M00/M13 A3033 RMK A01 T10031127  RH  039%=      5-min Rain = 0
KSLS 130345Z 06007KT M01/M13 A3033 RMK A01 T10051127  RH  040%=      5-min Rain = 0
KSLS 130350Z 06007KT M01/M13 A3033 RMK A01 T10071127  RH  040%=      5-min Rain = 0
KSLS 130355Z 07008KT M01/M13 A3034 RMK A01 T10081127  RH  041%=      5-min Rain = 0
KSLS 130400Z 07008KT M01/M13 A3034 RMK A01 T10071126  RH  041%=      5-min Rain = 0
KSLS 130405Z 07007KT M01/M13 A3034 RMK A01 T10081127  RH  041%=      5-min Rain = 0
KSLS 130410Z 08007KT M01/M13 A3034 RMK A01 T10091127  RH  041%=      5-min Rain = 0
KSLS 130415Z 08007KT M01/M13 A3034 RMK A01 T10091126  RH  041%=      5-min Rain = 0
KSLS 130420Z 07008KT M01/M13 A3035 RMK A01 T10091127  RH  041%=      5-min Rain = 0
KSLS 130425Z 06007KT M01/M13 A3036 RMK A01 T10091127  RH  041%=      5-min Rain = 0
KSLS 130430Z 06006KT M01/M13 A3036 RMK A01 T10101128  RH  041%=      5-min Rain = 0
KSLS 130435Z 05006KT M01/M13 A3036 RMK A01 T10111128  RH  041%=      5-min Rain = 0
KSLS 130440Z 05007KT M01/M13 A3037 RMK A01 T10111127  RH  042%=      5-min Rain = 0
KSLS 130445Z 05007KT M01/M13 A3037 RMK A01 T10111127  RH  041%=      5-min Rain = 0
KSLS 130450Z 06006KT M01/M13 A3037 RMK A01 T10091127  RH  041%=      5-min Rain = 0
KSLS 130455Z 05007KT M01/M13 A3038 RMK A01 T10091128  RH  041%=      5-min Rain = 0
KSLS 130500Z 05007KT M01/M13 A3038 RMK A01 T10091128  RH  040%=      5-min Rain = 0
KSLS 130505Z 05007KT M01/M13 A3039 RMK A01 T10081129  RH  040%=      5-min Rain = 0
KSLS 130510Z 04006KT M01/M13 A3039 RMK A01 T10081129  RH  040%=      5-min Rain = 0
KSLS 130515Z 05006KT M01/M13 A3039 RMK A01 T10071130  RH  040%=      5-min Rain = 0
KSLS 130520Z 06004KT M01/M13 A3039 RMK A01 T10071130  RH  040%=      5-min Rain = 0
KSLS 130525Z 06004KT M01/M13 A3039 RMK A01 T10081130  RH  040%=      5-min Rain = 0
KSLS 130530Z 05005KT M01/M13 A3039 RMK A01 T10081130  RH  040%=      5-min Rain = 0
KSLS 130535Z 05005KT M01/M13 A3039 RMK A01 T10091130  RH  040%=      5-min Rain = 0
KSLS 130540Z 05005KT M01/M13 A3039 RMK A01 T10091130  RH  040%=      5-min Rain = 0
KSLS 130545Z 04005KT M01/M13 A304 RMK A01 T10091129  RH  040%=      5-min Rain = 0
KSLS 130550Z 05004KT M01/M13 A304 RMK A01 T10091130  RH  040%=      5-min Rain = 0
KSLS 130555Z 06003KT M01/M13 A304 RMK A01 T10101130  RH  040%=      5-min Rain = 0

Page generated in 0.0144 seconds.